sensor_id;sensor_type;location;lat;lon;timestamp;pressure;altitude;pressure_sealevel;temperature;humidity
76598;BME280;65486;53.144;18.134;2023-02-04T00:00:19;100994.17;;;-1.06;90.88
76598;BME280;65486;53.144;18.134;2023-02-04T00:03:06;101012.92;;;-1.06;90.63
76598;BME280;65486;53.144;18.134;2023-02-04T00:05:32;101023.47;;;-1.07;90.34
76598;BME280;65486;53.144;18.134;2023-02-04T00:07:58;101031.36;;;-1.08;90.25
76598;BME280;65486;53.144;18.134;2023-02-04T00:10:24;101035.74;;;-1.11;90.21
76598;BME280;65486;53.144;18.134;2023-02-04T00:12:50;101043.26;;;-1.12;89.55
76598;BME280;65486;53.144;18.134;2023-02-04T00:15:16;101051.57;;;-1.12;89.38
76598;BME280;65486;53.144;18.134;2023-02-04T00:17:43;101065.45;;;-1.12;89.36
76598;BME280;65486;53.144;18.134;2023-02-04T00:20:09;101068.98;;;-1.13;88.82
76598;BME280;65486;53.144;18.134;2023-02-04T00:22:37;101081.13;;;-1.16;87.26
76598;BME280;65486;53.144;18.134;2023-02-04T00:25:03;101097.52;;;-1.15;87.49
76598;BME280;65486;53.144;18.134;2023-02-04T00:27:29;101113.95;;;-1.16;86.38
76598;BME280;65486;53.144;18.134;2023-02-04T00:29:55;101126.77;;;-1.17;86.74
76598;BME280;65486;53.144;18.134;2023-02-04T00:32:22;101134.52;;;-1.19;86.07
76598;BME280;65486;53.144;18.134;2023-02-04T00:34:48;101148.89;;;-1.21;85.61
76598;BME280;65486;53.144;18.134;2023-02-04T00:37:15;101157.91;;;-1.23;85.38
76598;BME280;65486;53.144;18.134;2023-02-04T00:39:41;101161.10;;;-1.24;84.91
76598;BME280;65486;53.144;18.134;2023-02-04T00:42:07;101169.47;;;-1.25;84.83
76598;BME280;65486;53.144;18.134;2023-02-04T00:44:35;101175.86;;;-1.26;84.80
76598;BME280;65486;53.144;18.134;2023-02-04T00:47:02;101181.27;;;-1.28;84.64
76598;BME280;65486;53.144;18.134;2023-02-04T00:49:29;101194.92;;;-1.29;84.40
76598;BME280;65486;53.144;18.134;2023-02-04T00:51:56;101205.80;;;-1.32;84.49
76598;BME280;65486;53.144;18.134;2023-02-04T00:54:22;101218.03;;;-1.36;84.55
76598;BME280;65486;53.144;18.134;2023-02-04T00:56:48;101224.23;;;-1.38;84.86
76598;BME280;65486;53.144;18.134;2023-02-04T00:59:14;101236.52;;;-1.41;84.71
76598;BME280;65486;53.144;18.134;2023-02-04T01:01:41;101243.79;;;-1.43;85.04
76598;BME280;65486;53.144;18.134;2023-02-04T01:04:08;101248.65;;;-1.45;85.31
76598;BME280;65486;53.144;18.134;2023-02-04T01:06:34;101256.98;;;-1.46;85.11
76598;BME280;65486;53.144;18.134;2023-02-04T01:09:01;101263.07;;;-1.47;85.32
76598;BME280;65486;53.144;18.134;2023-02-04T01:11:28;101274.08;;;-1.49;85.20
76598;BME280;65486;53.144;18.134;2023-02-04T01:13:55;101278.86;;;-1.52;85.31
76598;BME280;65486;53.144;18.134;2023-02-04T01:16:21;101294.88;;;-1.54;85.44
76598;BME280;65486;53.144;18.134;2023-02-04T01:18:48;101300.20;;;-1.55;85.43
76598;BME280;65486;53.144;18.134;2023-02-04T01:21:14;101307.69;;;-1.56;85.51
76598;BME280;65486;53.144;18.134;2023-02-04T01:23:42;101323.10;;;-1.57;85.48
76598;BME280;65486;53.144;18.134;2023-02-04T01:26:09;101333.81;;;-1.60;85.72
76598;BME280;65486;53.144;18.134;2023-02-04T01:28:35;101337.48;;;-1.63;85.42
76598;BME280;65486;53.144;18.134;2023-02-04T01:31:04;101350.10;;;-1.67;85.29
76598;BME280;65486;53.144;18.134;2023-02-04T01:33:30;101368.58;;;-1.71;84.94
76598;BME280;65486;53.144;18.134;2023-02-04T01:35:56;101378.30;;;-1.73;85.26
76598;BME280;65486;53.144;18.134;2023-02-04T01:38:22;101389.04;;;-1.76;85.21
76598;BME280;65486;53.144;18.134;2023-02-04T01:40:48;101388.21;;;-1.79;85.13
76598;BME280;65486;53.144;18.134;2023-02-04T01:43:14;101395.11;;;-1.82;85.22
76598;BME280;65486;53.144;18.134;2023-02-04T01:45:44;101412.02;;;-1.86;85.16
76598;BME280;65486;53.144;18.134;2023-02-04T01:48:11;101421.94;;;-1.90;85.07
76598;BME280;65486;53.144;18.134;2023-02-04T01:50:39;101431.45;;;-1.94;85.44
76598;BME280;65486;53.144;18.134;2023-02-04T01:53:05;101447.85;;;-1.98;85.29
76598;BME280;65486;53.144;18.134;2023-02-04T01:55:32;101461.30;;;-2.02;85.22
76598;BME280;65486;53.144;18.134;2023-02-04T01:57:59;101470.25;;;-2.05;84.99
76598;BME280;65486;53.144;18.134;2023-02-04T02:00:28;101477.39;;;-2.07;84.93
76598;BME280;65486;53.144;18.134;2023-02-04T02:02:56;101476.63;;;-2.09;84.91
76598;BME280;65486;53.144;18.134;2023-02-04T02:07:53;101497.80;;;-2.14;84.91
76598;BME280;65486;53.144;18.134;2023-02-04T02:10:20;101516.02;;;-2.17;84.81
76598;BME280;65486;53.144;18.134;2023-02-04T02:12:48;101526.66;;;-2.20;85.09
76598;BME280;65486;53.144;18.134;2023-02-04T02:15:15;101539.45;;;-2.21;84.82
76598;BME280;65486;53.144;18.134;2023-02-04T02:17:42;101550.38;;;-2.23;84.91
76598;BME280;65486;53.144;18.134;2023-02-04T02:20:13;101554.91;;;-2.24;84.49
76598;BME280;65486;53.144;18.134;2023-02-04T02:25:35;101568.68;;;-2.22;84.35
76598;BME280;65486;53.144;18.134;2023-02-04T02:28:08;101574.06;;;-2.24;84.05
76598;BME280;65486;53.144;18.134;2023-02-04T02:30:35;101584.17;;;-2.25;83.79
76598;BME280;65486;53.144;18.134;2023-02-04T02:33:02;101597.62;;;-2.26;83.66
76598;BME280;65486;53.144;18.134;2023-02-04T02:35:29;101607.80;;;-2.27;83.79
76598;BME280;65486;53.144;18.134;2023-02-04T02:37:55;101615.11;;;-2.29;83.79
76598;BME280;65486;53.144;18.134;2023-02-04T02:40:22;101621.58;;;-2.31;83.97
76598;BME280;65486;53.144;18.134;2023-02-04T02:42:50;101631.05;;;-2.32;83.80
76598;BME280;65486;53.144;18.134;2023-02-04T02:45:24;101643.38;;;-2.31;83.38
76598;BME280;65486;53.144;18.134;2023-02-04T02:47:51;101652.46;;;-2.30;83.34
76598;BME280;65486;53.144;18.134;2023-02-04T02:50:24;101662.52;;;-2.29;83.46
76598;BME280;65486;53.144;18.134;2023-02-04T02:52:52;101672.23;;;-2.29;83.21
76598;BME280;65486;53.144;18.134;2023-02-04T02:55:22;101675.45;;;-2.29;83.04
76598;BME280;65486;53.144;18.134;2023-02-04T02:57:51;101676.38;;;-2.29;83.25
76598;BME280;65486;53.144;18.134;2023-02-04T03:00:20;101681.70;;;-2.28;83.12
76598;BME280;65486;53.144;18.134;2023-02-04T03:05:26;101688.90;;;-2.24;83.11
76598;BME280;65486;53.144;18.134;2023-02-04T03:07:54;101698.38;;;-2.22;83.34
76598;BME280;65486;53.144;18.134;2023-02-04T03:10:20;101715.66;;;-2.23;83.39
76598;BME280;65486;53.144;18.134;2023-02-04T03:12:46;101721.92;;;-2.20;83.11
76598;BME280;65486;53.144;18.134;2023-02-04T03:15:13;101732.45;;;-2.19;83.30
76598;BME280;65486;53.144;18.134;2023-02-04T03:17:40;101741.50;;;-2.19;83.41
76598;BME280;65486;53.144;18.134;2023-02-04T03:20:07;101751.27;;;-2.20;83.77
76598;BME280;65486;53.144;18.134;2023-02-04T03:22:35;101763.67;;;-2.21;83.83
76598;BME280;65486;53.144;18.134;2023-02-04T03:25:01;101776.98;;;-2.24;83.64
76598;BME280;65486;53.144;18.134;2023-02-04T03:27:28;101782.77;;;-2.27;83.90
76598;BME280;65486;53.144;18.134;2023-02-04T03:29:54;101793.35;;;-2.30;83.92
76598;BME280;65486;53.144;18.134;2023-02-04T03:32:20;101798.34;;;-2.35;83.95
76598;BME280;65486;53.144;18.134;2023-02-04T03:34:46;101807.65;;;-2.38;83.84
76598;BME280;65486;53.144;18.134;2023-02-04T03:37:12;101822.96;;;-2.41;84.12
76598;BME280;65486;53.144;18.134;2023-02-04T03:39:39;101831.46;;;-2.44;84.15
76598;BME280;65486;53.144;18.134;2023-02-04T03:42:05;101838.34;;;-2.47;84.20
76598;BME280;65486;53.144;18.134;2023-02-04T03:44:31;101847.90;;;-2.49;84.39
76598;BME280;65486;53.144;18.134;2023-02-04T03:46:57;101854.73;;;-2.52;84.28
76598;BME280;65486;53.144;18.134;2023-02-04T03:49:25;101870.20;;;-2.54;84.48
76598;BME280;65486;53.144;18.134;2023-02-04T03:51:53;101877.64;;;-2.57;84.46
76598;BME280;65486;53.144;18.134;2023-02-04T03:54:19;101884.06;;;-2.62;84.57
76598;BME280;65486;53.144;18.134;2023-02-04T03:56:45;101891.02;;;-2.66;84.66
76598;BME280;65486;53.144;18.134;2023-02-04T03:59:11;101901.03;;;-2.70;85.02
76598;BME280;65486;53.144;18.134;2023-02-04T04:01:38;101909.24;;;-2.74;84.80
76598;BME280;65486;53.144;18.134;2023-02-04T04:04:04;101914.43;;;-2.78;85.01
76598;BME280;65486;53.144;18.134;2023-02-04T04:06:30;101918.60;;;-2.81;85.12
76598;BME280;65486;53.144;18.134;2023-02-04T04:08:57;101926.94;;;-2.84;85.10
76598;BME280;65486;53.144;18.134;2023-02-04T04:11:23;101935.88;;;-2.86;85.44
76598;BME280;65486;53.144;18.134;2023-02-04T04:13:50;101935.91;;;-2.87;85.45
76598;BME280;65486;53.144;18.134;2023-02-04T04:16:16;101942.56;;;-2.89;85.20
76598;BME280;65486;53.144;18.134;2023-02-04T04:18:43;101941.13;;;-2.89;85.45
76598;BME280;65486;53.144;18.134;2023-02-04T04:21:09;101941.90;;;-2.87;85.43
76598;BME280;65486;53.144;18.134;2023-02-04T04:23:35;101941.86;;;-2.84;85.51
76598;BME280;65486;53.144;18.134;2023-02-04T04:26:01;101944.75;;;-2.82;85.38
76598;BME280;65486;53.144;18.134;2023-02-04T04:28:27;101949.90;;;-2.81;85.34
76598;BME280;65486;53.144;18.134;2023-02-04T04:30:53;101949.58;;;-2.82;85.36
76598;BME280;65486;53.144;18.134;2023-02-04T04:33:19;101951.16;;;-2.83;85.43
76598;BME280;65486;53.144;18.134;2023-02-04T04:35:46;101952.16;;;-2.85;85.52
76598;BME280;65486;53.144;18.134;2023-02-04T04:38:12;101965.58;;;-2.84;85.70
76598;BME280;65486;53.144;18.134;2023-02-04T04:40:38;101976.84;;;-2.80;85.57
76598;BME280;65486;53.144;18.134;2023-02-04T04:43:04;101978.65;;;-2.73;85.76
76598;BME280;65486;53.144;18.134;2023-02-04T04:45:30;101999.11;;;-2.65;85.84
76598;BME280;65486;53.144;18.134;2023-02-04T04:47:57;102016.02;;;-2.57;85.74
76598;BME280;65486;53.144;18.134;2023-02-04T04:50:23;102033.58;;;-2.48;85.40
76598;BME280;65486;53.144;18.134;2023-02-04T04:52:49;102048.58;;;-2.41;85.42
76598;BME280;65486;53.144;18.134;2023-02-04T04:55:15;102049.06;;;-2.35;85.41
76598;BME280;65486;53.144;18.134;2023-02-04T04:57:41;102053.12;;;-2.29;85.34
76598;BME280;65486;53.144;18.134;2023-02-04T05:00:16;102058.63;;;-2.23;85.51
76598;BME280;65486;53.144;18.134;2023-02-04T05:02:42;102061.10;;;-2.17;85.34
76598;BME280;65486;53.144;18.134;2023-02-04T05:05:09;102056.97;;;-2.12;85.39
76598;BME280;65486;53.144;18.134;2023-02-04T05:07:35;102058.98;;;-2.08;85.28
76598;BME280;65486;53.144;18.134;2023-02-04T05:10:03;102060.34;;;-2.07;85.45
76598;BME280;65486;53.144;18.134;2023-02-04T05:12:29;102061.39;;;-2.09;85.30
76598;BME280;65486;53.144;18.134;2023-02-04T05:14:55;102067.05;;;-2.12;85.32
76598;BME280;65486;53.144;18.134;2023-02-04T05:17:21;102070.89;;;-2.16;85.53
76598;BME280;65486;53.144;18.134;2023-02-04T05:19:47;102073.41;;;-2.18;85.34
76598;BME280;65486;53.144;18.134;2023-02-04T05:22:14;102086.43;;;-2.19;85.35
76598;BME280;65486;53.144;18.134;2023-02-04T05:24:40;102089.46;;;-2.18;85.41
76598;BME280;65486;53.144;18.134;2023-02-04T05:27:06;102092.13;;;-2.18;85.40
76598;BME280;65486;53.144;18.134;2023-02-04T05:29:32;102095.52;;;-2.15;85.55
76598;BME280;65486;53.144;18.134;2023-02-04T05:31:58;102097.84;;;-2.12;85.51
76598;BME280;65486;53.144;18.134;2023-02-04T05:34:24;102096.67;;;-2.06;85.45
76598;BME280;65486;53.144;18.134;2023-02-04T05:36:50;102100.35;;;-1.99;85.44
76598;BME280;65486;53.144;18.134;2023-02-04T05:39:16;102107.25;;;-1.93;85.36
76598;BME280;65486;53.144;18.134;2023-02-04T05:41:43;102109.84;;;-1.89;85.55
76598;BME280;65486;53.144;18.134;2023-02-04T05:44:09;102119.48;;;-1.85;85.20
76598;BME280;65486;53.144;18.134;2023-02-04T05:46:35;102126.94;;;-1.84;85.34
76598;BME280;65486;53.144;18.134;2023-02-04T05:49:02;102125.56;;;-1.82;85.18
76598;BME280;65486;53.144;18.134;2023-02-04T05:51:28;102129.96;;;-1.80;85.49
76598;BME280;65486;53.144;18.134;2023-02-04T05:53:54;102133.96;;;-1.79;85.38
76598;BME280;65486;53.144;18.134;2023-02-04T05:56:21;102139.52;;;-1.76;85.35
76598;BME280;65486;53.144;18.134;2023-02-04T05:58:47;102147.83;;;-1.73;85.38
76598;BME280;65486;53.144;18.134;2023-02-04T06:01:13;102151.31;;;-1.72;85.12
76598;BME280;65486;53.144;18.134;2023-02-04T06:03:39;102158.71;;;-1.69;85.27
76598;BME280;65486;53.144;18.134;2023-02-04T06:06:06;102165.94;;;-1.66;85.16
76598;BME280;65486;53.144;18.134;2023-02-04T06:08:32;102170.34;;;-1.65;85.13
76598;BME280;65486;53.144;18.134;2023-02-04T06:10:58;102172.63;;;-1.64;85.14
76598;BME280;65486;53.144;18.134;2023-02-04T06:13:24;102175.23;;;-1.63;85.33
76598;BME280;65486;53.144;18.134;2023-02-04T06:15:50;102176.67;;;-1.61;85.08
76598;BME280;65486;53.144;18.134;2023-02-04T06:18:16;102176.10;;;-1.60;85.03
76598;BME280;65486;53.144;18.134;2023-02-04T06:20:42;102186.04;;;-1.60;85.05
76598;BME280;65486;53.144;18.134;2023-02-04T06:23:09;102193.67;;;-1.61;84.89
76598;BME280;65486;53.144;18.134;2023-02-04T06:25:35;102201.52;;;-1.60;85.24
76598;BME280;65486;53.144;18.134;2023-02-04T06:28:05;102205.70;;;-1.58;85.08
76598;BME280;65486;53.144;18.134;2023-02-04T06:30:36;102201.16;;;-1.55;85.08
76598;BME280;65486;53.144;18.134;2023-02-04T06:33:03;102199.96;;;-1.51;85.10
76598;BME280;65486;53.144;18.134;2023-02-04T06:35:29;102207.90;;;-1.46;85.14
76598;BME280;65486;53.144;18.134;2023-02-04T06:37:55;102205.66;;;-1.43;85.22
76598;BME280;65486;53.144;18.134;2023-02-04T06:40:21;102215.55;;;-1.40;85.12
76598;BME280;65486;53.144;18.134;2023-02-04T06:42:47;102224.23;;;-1.38;84.95
76598;BME280;65486;53.144;18.134;2023-02-04T06:45:14;102227.45;;;-1.37;84.77
76598;BME280;65486;53.144;18.134;2023-02-04T06:47:40;102229.30;;;-1.38;84.65
76598;BME280;65486;53.144;18.134;2023-02-04T06:50:07;102240.09;;;-1.40;84.16
76598;BME280;65486;53.144;18.134;2023-02-04T06:52:35;102253.07;;;-1.42;84.02
76598;BME280;65486;53.144;18.134;2023-02-04T06:55:02;102256.02;;;-1.46;84.20
76598;BME280;65486;53.144;18.134;2023-02-04T06:57:28;102265.38;;;-1.48;83.63
76598;BME280;65486;53.144;18.134;2023-02-04T06:59:54;102265.73;;;-1.50;84.00
76598;BME280;65486;53.144;18.134;2023-02-04T07:02:20;102274.02;;;-1.53;83.87
76598;BME280;65486;53.144;18.134;2023-02-04T07:04:46;102277.14;;;-1.58;83.93
76598;BME280;65486;53.144;18.134;2023-02-04T07:07:14;102283.71;;;-1.64;83.84
76598;BME280;65486;53.144;18.134;2023-02-04T07:09:40;102286.24;;;-1.67;84.02
76598;BME280;65486;53.144;18.134;2023-02-04T07:12:07;102295.45;;;-1.65;83.94
76598;BME280;65486;53.144;18.134;2023-02-04T07:14:33;102295.66;;;-1.60;83.92
76598;BME280;65486;53.144;18.134;2023-02-04T07:17:00;102302.71;;;-1.53;83.86
76598;BME280;65486;53.144;18.134;2023-02-04T07:19:26;102303.91;;;-1.47;83.36
76598;BME280;65486;53.144;18.134;2023-02-04T07:21:52;102312.99;;;-1.33;83.36
76598;BME280;65486;53.144;18.134;2023-02-04T07:24:24;102311.40;;;-0.91;83.49
76598;BME280;65486;53.144;18.134;2023-02-04T07:26:50;102319.85;;;-0.20;82.36
76598;BME280;65486;53.144;18.134;2023-02-04T07:29:16;102320.70;;;0.53;80.90
76598;BME280;65486;53.144;18.134;2023-02-04T07:31:46;102323.64;;;0.61;80.00
76598;BME280;65486;53.144;18.134;2023-02-04T07:34:13;102298.48;;;0.16;80.33
76598;BME280;65486;53.144;18.134;2023-02-04T07:36:42;102329.11;;;0.10;80.88
76598;BME280;65486;53.144;18.134;2023-02-04T07:39:09;102335.33;;;-0.10;81.14
76598;BME280;65486;53.144;18.134;2023-02-04T07:41:35;102341.98;;;-0.26;81.13
76598;BME280;65486;53.144;18.134;2023-02-04T07:44:02;102346.81;;;-0.42;81.33
76598;BME280;65486;53.144;18.134;2023-02-04T07:46:29;102349.17;;;-0.59;81.22
76598;BME280;65486;53.144;18.134;2023-02-04T07:48:55;102351.06;;;-0.61;81.42
76598;BME280;65486;53.144;18.134;2023-02-04T07:51:21;102355.54;;;-0.48;81.37
76598;BME280;65486;53.144;18.134;2023-02-04T07:53:48;102322.55;;;-0.58;81.02
76598;BME280;65486;53.144;18.134;2023-02-04T07:56:14;102366.30;;;0.08;80.48
76598;BME280;65486;53.144;18.134;2023-02-04T07:58:41;102370.92;;;0.28;80.31
76598;BME280;65486;53.144;18.134;2023-02-04T08:01:07;102378.08;;;0.34;80.06
76598;BME280;65486;53.144;18.134;2023-02-04T08:03:35;102383.16;;;0.53;80.02
76598;BME280;65486;53.144;18.134;2023-02-04T08:06:01;102391.02;;;0.67;79.17
76598;BME280;65486;53.144;18.134;2023-02-04T08:08:27;102397.36;;;1.08;79.14
76598;BME280;65486;53.144;18.134;2023-02-04T08:10:54;102395.30;;;2.08;77.62
76598;BME280;65486;53.144;18.134;2023-02-04T08:13:20;102399.24;;;2.32;76.47
76598;BME280;65486;53.144;18.134;2023-02-04T08:15:46;102403.10;;;2.17;76.20
76598;BME280;65486;53.144;18.134;2023-02-04T08:18:12;102408.47;;;1.81;76.56
76598;BME280;65486;53.144;18.134;2023-02-04T08:20:38;102414.20;;;1.46;76.89
76598;BME280;65486;53.144;18.134;2023-02-04T08:23:04;102416.54;;;1.15;76.87
76598;BME280;65486;53.144;18.134;2023-02-04T08:25:31;102404.88;;;0.92;77.15
76598;BME280;65486;53.144;18.134;2023-02-04T08:27:57;102418.68;;;0.96;77.25
76598;BME280;65486;53.144;18.134;2023-02-04T08:30:25;102420.50;;;0.81;77.63
76598;BME280;65486;53.144;18.134;2023-02-04T08:32:53;102424.08;;;0.70;77.42
76598;BME280;65486;53.144;18.134;2023-02-04T08:35:20;102428.42;;;0.64;77.82
76598;BME280;65486;53.144;18.134;2023-02-04T08:37:46;102429.09;;;0.57;77.58
76598;BME280;65486;53.144;18.134;2023-02-04T08:40:12;102434.34;;;0.52;77.85
76598;BME280;65486;53.144;18.134;2023-02-04T08:42:44;102434.89;;;0.52;77.90
76598;BME280;65486;53.144;18.134;2023-02-04T08:45:11;102439.80;;;0.50;78.11
76598;BME280;65486;53.144;18.134;2023-02-04T08:47:39;102442.20;;;0.56;77.67
76598;BME280;65486;53.144;18.134;2023-02-04T08:50:08;102448.88;;;0.73;77.75
76598;BME280;65486;53.144;18.134;2023-02-04T08:52:38;102456.44;;;1.08;77.45
76598;BME280;65486;53.144;18.134;2023-02-04T08:55:05;102449.91;;;1.57;76.44
76598;BME280;65486;53.144;18.134;2023-02-04T08:57:34;102453.34;;;2.65;74.64
76598;BME280;65486;53.144;18.134;2023-02-04T09:00:01;102447.61;;;4.31;72.11
76598;BME280;65486;53.144;18.134;2023-02-04T09:02:30;102439.27;;;6.04;68.93
76598;BME280;65486;53.144;18.134;2023-02-04T09:04:56;102446.54;;;7.93;64.23
76598;BME280;65486;53.144;18.134;2023-02-04T09:07:23;102451.88;;;8.88;62.57
76598;BME280;65486;53.144;18.134;2023-02-04T09:09:49;102456.73;;;9.21;60.96
76598;BME280;65486;53.144;18.134;2023-02-04T09:12:18;102451.77;;;10.10;58.61
76598;BME280;65486;53.144;18.134;2023-02-04T09:14:46;102461.58;;;11.03;58.30
76598;BME280;65486;53.144;18.134;2023-02-04T09:17:12;102463.36;;;12.17;56.12
76598;BME280;65486;53.144;18.134;2023-02-04T09:19:39;102462.36;;;13.03;54.14
76598;BME280;65486;53.144;18.134;2023-02-04T09:22:12;102463.06;;;12.48;53.19
76598;BME280;65486;53.144;18.134;2023-02-04T09:24:38;102466.15;;;12.08;54.76
76598;BME280;65486;53.144;18.134;2023-02-04T09:27:05;102473.08;;;11.54;55.75
76598;BME280;65486;53.144;18.134;2023-02-04T09:29:31;102480.02;;;11.66;54.61
76598;BME280;65486;53.144;18.134;2023-02-04T09:31:59;102480.14;;;12.46;50.79
76598;BME280;65486;53.144;18.134;2023-02-04T09:34:29;102478.75;;;13.01;51.95
76598;BME280;65486;53.144;18.134;2023-02-04T09:36:58;102478.07;;;13.73;51.35
76598;BME280;65486;53.144;18.134;2023-02-04T09:39:24;102484.25;;;14.26;48.75
76598;BME280;65486;53.144;18.134;2023-02-04T09:41:53;102484.04;;;14.71;48.01
76598;BME280;65486;53.144;18.134;2023-02-04T09:44:24;102485.29;;;15.06;45.85
76598;BME280;65486;53.144;18.134;2023-02-04T09:46:55;102483.37;;;14.78;45.76
76598;BME280;65486;53.144;18.134;2023-02-04T09:49:24;102484.83;;;13.97;46.84
76598;BME280;65486;53.144;18.134;2023-02-04T09:51:52;102484.05;;;13.56;47.31
76598;BME280;65486;53.144;18.134;2023-02-04T09:54:20;102483.42;;;13.64;44.47
76598;BME280;65486;53.144;18.134;2023-02-04T09:56:48;102489.30;;;13.79;45.83
76598;BME280;65486;53.144;18.134;2023-02-04T09:59:20;102490.73;;;14.09;45.49
76598;BME280;65486;53.144;18.134;2023-02-04T10:02:04;102485.71;;;14.19;46.59
76598;BME280;65486;53.144;18.134;2023-02-04T10:04:36;102492.04;;;13.94;44.54
76598;BME280;65486;53.144;18.134;2023-02-04T10:07:10;102495.93;;;13.70;43.79
76598;BME280;65486;53.144;18.134;2023-02-04T10:09:39;102493.54;;;13.60;42.36
76598;BME280;65486;53.144;18.134;2023-02-04T10:12:06;102497.65;;;13.42;44.57
76598;BME280;65486;53.144;18.134;2023-02-04T10:14:32;102495.19;;;12.62;45.94
76598;BME280;65486;53.144;18.134;2023-02-04T10:16:59;102500.85;;;11.28;48.02
76598;BME280;65486;53.144;18.134;2023-02-04T10:19:28;102505.79;;;9.99;49.45
76598;BME280;65486;53.144;18.134;2023-02-04T10:21:56;102511.77;;;8.81;50.86
76598;BME280;65486;53.144;18.134;2023-02-04T10:24:25;102518.11;;;7.84;52.05
76598;BME280;65486;53.144;18.134;2023-02-04T10:27:06;102517.34;;;7.01;54.17
76598;BME280;65486;53.144;18.134;2023-02-04T10:29:33;102521.58;;;6.34;54.59
76598;BME280;65486;53.144;18.134;2023-02-04T10:32:00;102523.80;;;5.78;55.43
76598;BME280;65486;53.144;18.134;2023-02-04T10:34:37;102530.70;;;5.32;56.64
76598;BME280;65486;53.144;18.134;2023-02-04T10:37:20;102533.75;;;4.94;57.69
76598;BME280;65486;53.144;18.134;2023-02-04T10:39:50;102533.36;;;4.55;57.98
76598;BME280;65486;53.144;18.134;2023-02-04T10:42:25;102544.17;;;4.17;58.99
76598;BME280;65486;53.144;18.134;2023-02-04T10:45:21;102542.98;;;3.88;59.76
76598;BME280;65486;53.144;18.134;2023-02-04T10:47:50;102543.77;;;3.64;60.28
76598;BME280;65486;53.144;18.134;2023-02-04T10:50:24;102542.21;;;3.43;60.85
76598;BME280;65486;53.144;18.134;2023-02-04T10:53:04;102546.65;;;3.29;61.40
76598;BME280;65486;53.144;18.134;2023-02-04T10:56:01;102549.95;;;3.29;61.53
76598;BME280;65486;53.144;18.134;2023-02-04T10:58:30;102548.95;;;3.22;61.49
76598;BME280;65486;53.144;18.134;2023-02-04T11:00:57;102561.52;;;3.07;61.37
76598;BME280;65486;53.144;18.134;2023-02-04T11:03:28;102560.02;;;3.08;61.51
76598;BME280;65486;53.144;18.134;2023-02-04T11:05:59;102559.83;;;3.22;61.57
76598;BME280;65486;53.144;18.134;2023-02-04T11:08:31;102563.56;;;3.23;61.64
76598;BME280;65486;53.144;18.134;2023-02-04T11:11:29;102571.66;;;3.20;62.13
76598;BME280;65486;53.144;18.134;2023-02-04T11:16:46;102572.76;;;3.10;63.04
76598;BME280;65486;53.144;18.134;2023-02-04T11:19:13;102569.17;;;3.07;63.24
76598;BME280;65486;53.144;18.134;2023-02-04T11:21:44;102566.72;;;3.06;62.96
76598;BME280;65486;53.144;18.134;2023-02-04T11:26:42;102568.75;;;2.95;63.24
76598;BME280;65486;53.144;18.134;2023-02-04T11:29:30;102569.76;;;2.87;63.48
76598;BME280;65486;53.144;18.134;2023-02-04T11:32:35;102571.95;;;2.78;63.62
76598;BME280;65486;53.144;18.134;2023-02-04T11:37:38;102575.06;;;2.80;64.14
76598;BME280;65486;53.144;18.134;2023-02-04T11:40:36;102580.27;;;2.81;64.59
76598;BME280;65486;53.144;18.134;2023-02-04T11:43:14;102582.02;;;2.82;64.23
76598;BME280;65486;53.144;18.134;2023-02-04T11:45:41;102590.24;;;2.71;64.64
76598;BME280;65486;53.144;18.134;2023-02-04T11:48:13;102599.31;;;2.53;64.44
76598;BME280;65486;53.144;18.134;2023-02-04T11:51:01;102601.81;;;2.25;65.08
76598;BME280;65486;53.144;18.134;2023-02-04T11:53:31;102600.94;;;1.93;65.34
76598;BME280;65486;53.144;18.134;2023-02-04T11:56:02;102606.98;;;1.65;66.33
76598;BME280;65486;53.144;18.134;2023-02-04T11:59:16;102601.30;;;1.43;66.40
76598;BME280;65486;53.144;18.134;2023-02-04T12:01:46;102609.35;;;1.45;67.06
76598;BME280;65486;53.144;18.134;2023-02-04T12:04:24;102609.03;;;1.46;67.34
76598;BME280;65486;53.144;18.134;2023-02-04T12:07:01;102608.72;;;1.57;67.04
76598;BME280;65486;53.144;18.134;2023-02-04T12:09:30;102607.72;;;1.79;66.82
76598;BME280;65486;53.144;18.134;2023-02-04T12:11:59;102611.20;;;2.05;66.54
76598;BME280;65486;53.144;18.134;2023-02-04T12:14:35;102611.63;;;2.27;66.17
76598;BME280;65486;53.144;18.134;2023-02-04T12:17:16;102608.55;;;2.38;65.88
76598;BME280;65486;53.144;18.134;2023-02-04T12:19:43;102612.92;;;2.38;65.98
76598;BME280;65486;53.144;18.134;2023-02-04T12:22:09;102613.98;;;2.34;65.82
76598;BME280;65486;53.144;18.134;2023-02-04T12:24:35;102619.92;;;2.30;65.97
76598;BME280;65486;53.144;18.134;2023-02-04T12:27:02;102619.83;;;2.27;65.67
76598;BME280;65486;53.144;18.134;2023-02-04T12:29:28;102624.92;;;2.29;65.54
76598;BME280;65486;53.144;18.134;2023-02-04T12:31:58;102621.51;;;2.22;65.58
76598;BME280;65486;53.144;18.134;2023-02-04T12:34:28;102622.11;;;2.12;66.00
76598;BME280;65486;53.144;18.134;2023-02-04T12:36:55;102626.27;;;2.05;66.12
76598;BME280;65486;53.144;18.134;2023-02-04T12:39:23;102625.55;;;1.98;66.28
76598;BME280;65486;53.144;18.134;2023-02-04T12:41:53;102625.58;;;1.96;66.63
76598;BME280;65486;53.144;18.134;2023-02-04T12:44:20;102629.52;;;1.85;66.46
76598;BME280;65486;53.144;18.134;2023-02-04T12:46:46;102634.21;;;1.69;66.74
76598;BME280;65486;53.144;18.134;2023-02-04T12:49:13;102640.04;;;1.58;67.24
76598;BME280;65486;53.144;18.134;2023-02-04T12:51:40;102639.52;;;1.53;67.69
76598;BME280;65486;53.144;18.134;2023-02-04T12:54:07;102641.48;;;1.53;67.64
76598;BME280;65486;53.144;18.134;2023-02-04T12:56:36;102643.73;;;1.52;67.30
76598;BME280;65486;53.144;18.134;2023-02-04T12:59:09;102639.80;;;1.58;67.56
76598;BME280;65486;53.144;18.134;2023-02-04T13:01:38;102648.98;;;1.62;67.42
76598;BME280;65486;53.144;18.134;2023-02-04T13:04:10;102653.73;;;1.63;67.68